sensor_id;sensor_type;location;lat;lon;timestamp;pressure;altitude;pressure_sealevel;temperature;humidity
63405;BME280;49541;57.840;12.306;2023-05-21T00:02:00;101802.78;;;12.56;64.54
63405;BME280;49541;57.840;12.306;2023-05-21T00:07:03;101808.38;;;12.99;63.40
63405;BME280;49541;57.840;12.306;2023-05-21T00:12:06;101817.41;;;12.39;65.05
63405;BME280;49541;57.840;12.306;2023-05-21T00:17:07;101814.19;;;11.48;68.59
63405;BME280;49541;57.840;12.306;2023-05-21T00:22:07;101815.75;;;11.77;68.71
63405;BME280;49541;57.840;12.306;2023-05-21T00:27:08;101808.97;;;11.60;69.10
63405;BME280;49541;57.840;12.306;2023-05-21T00:32:08;101814.06;;;11.63;68.92
63405;BME280;49541;57.840;12.306;2023-05-21T00:37:08;101804.94;;;12.39;67.72
63405;BME280;49541;57.840;12.306;2023-05-21T00:42:08;101799.22;;;12.33;67.55
63405;BME280;49541;57.840;12.306;2023-05-21T00:47:09;101800.63;;;12.01;68.75
63405;BME280;49541;57.840;12.306;2023-05-21T00:52:09;101801.41;;;11.91;68.38
63405;BME280;49541;57.840;12.306;2023-05-21T00:57:10;101796.31;;;12.12;68.38
63405;BME280;49541;57.840;12.306;2023-05-21T01:02:10;101794.91;;;11.95;68.53
63405;BME280;49541;57.840;12.306;2023-05-21T01:07:13;101792.66;;;12.13;68.57
63405;BME280;49541;57.840;12.306;2023-05-21T01:12:13;101791.41;;;12.29;67.55
63405;BME280;49541;57.840;12.306;2023-05-21T01:17:14;101797.66;;;12.41;67.40
63405;BME280;49541;57.840;12.306;2023-05-21T01:22:14;101805.00;;;12.26;67.76
63405;BME280;49541;57.840;12.306;2023-05-21T01:27:17;101797.31;;;12.46;65.99
63405;BME280;49541;57.840;12.306;2023-05-21T01:37:20;101804.13;;;12.26;65.27
63405;BME280;49541;57.840;12.306;2023-05-21T01:42:22;101799.94;;;12.35;65.20
63405;BME280;49541;57.840;12.306;2023-05-21T01:47:23;101803.41;;;12.48;65.43
63405;BME280;49541;57.840;12.306;2023-05-21T01:52:23;101795.59;;;12.45;65.78
63405;BME280;49541;57.840;12.306;2023-05-21T01:57:23;101807.41;;;12.54;66.23
63405;BME280;49541;57.840;12.306;2023-05-21T02:02:23;101798.66;;;12.52;66.72
63405;BME280;49541;57.840;12.306;2023-05-21T02:07:23;101802.22;;;12.63;65.97
63405;BME280;49541;57.840;12.306;2023-05-21T02:12:24;101800.19;;;12.43;65.85
63405;BME280;49541;57.840;12.306;2023-05-21T02:17:24;101800.44;;;12.40;66.39
63405;BME280;49541;57.840;12.306;2023-05-21T02:22:25;101801.88;;;12.33;66.49
63405;BME280;49541;57.840;12.306;2023-05-21T02:27:25;101793.28;;;12.40;67.18
63405;BME280;49541;57.840;12.306;2023-05-21T02:32:26;101793.19;;;12.18;67.10
63405;BME280;49541;57.840;12.306;2023-05-21T02:37:26;101793.44;;;12.26;67.04
63405;BME280;49541;57.840;12.306;2023-05-21T02:42:26;101792.28;;;12.06;66.92
63405;BME280;49541;57.840;12.306;2023-05-21T02:47:27;101795.69;;;12.08;66.21
63405;BME280;49541;57.840;12.306;2023-05-21T02:52:27;101797.25;;;11.86;65.71
63405;BME280;49541;57.840;12.306;2023-05-21T02:57:27;101795.53;;;11.85;64.92
63405;BME280;49541;57.840;12.306;2023-05-21T03:02:27;101792.59;;;11.77;65.24
63405;BME280;49541;57.840;12.306;2023-05-21T03:07:29;101797.06;;;11.90;65.56
63405;BME280;49541;57.840;12.306;2023-05-21T03:12:29;101799.91;;;11.50;65.88
63405;BME280;49541;57.840;12.306;2023-05-21T03:17:29;101800.00;;;11.48;65.56
63405;BME280;49541;57.840;12.306;2023-05-21T03:22:30;101804.06;;;11.54;65.82
63405;BME280;49541;57.840;12.306;2023-05-21T03:27:30;101802.25;;;11.54;65.53
63405;BME280;49541;57.840;12.306;2023-05-21T03:32:31;101792.34;;;11.43;65.52
63405;BME280;49541;57.840;12.306;2023-05-21T03:37:36;101790.75;;;11.28;65.72
63405;BME280;49541;57.840;12.306;2023-05-21T03:42:36;101790.25;;;11.23;65.66
63405;BME280;49541;57.840;12.306;2023-05-21T03:47:36;101798.34;;;11.09;65.80
63405;BME280;49541;57.840;12.306;2023-05-21T03:52:37;101796.75;;;11.19;65.33
63405;BME280;49541;57.840;12.306;2023-05-21T03:57:37;101794.94;;;11.06;64.34
63405;BME280;49541;57.840;12.306;2023-05-21T04:02:37;101791.94;;;11.11;63.59
63405;BME280;49541;57.840;12.306;2023-05-21T04:07:37;101795.47;;;11.12;64.00
63405;BME280;49541;57.840;12.306;2023-05-21T04:12:38;101796.19;;;11.26;63.32
63405;BME280;49541;57.840;12.306;2023-05-21T04:17:38;101789.78;;;11.29;62.44
63405;BME280;49541;57.840;12.306;2023-05-21T04:22:39;101801.41;;;11.54;62.55
63405;BME280;49541;57.840;12.306;2023-05-21T04:27:39;101801.59;;;11.51;62.59
63405;BME280;49541;57.840;12.306;2023-05-21T04:32:40;101797.47;;;11.96;66.11
63405;BME280;49541;57.840;12.306;2023-05-21T04:37:40;101800.47;;;11.92;65.33
63405;BME280;49541;57.840;12.306;2023-05-21T04:42:41;101803.00;;;11.80;63.55
63405;BME280;49541;57.840;12.306;2023-05-21T04:47:41;101799.16;;;11.84;63.37
63405;BME280;49541;57.840;12.306;2023-05-21T04:52:42;101797.84;;;12.03;61.98
63405;BME280;49541;57.840;12.306;2023-05-21T04:57:44;101791.53;;;12.28;62.12
63405;BME280;49541;57.840;12.306;2023-05-21T05:02:44;101791.44;;;12.41;60.95
63405;BME280;49541;57.840;12.306;2023-05-21T05:07:45;101793.47;;;12.61;61.14
63405;BME280;49541;57.840;12.306;2023-05-21T05:12:45;101794.59;;;12.81;60.80
63405;BME280;49541;57.840;12.306;2023-05-21T05:17:45;101782.25;;;12.91;61.26
63405;BME280;49541;57.840;12.306;2023-05-21T05:22:49;101775.56;;;13.08;61.11
63405;BME280;49541;57.840;12.306;2023-05-21T05:27:49;101795.38;;;13.06;63.25
63405;BME280;49541;57.840;12.306;2023-05-21T05:32:49;101783.03;;;13.39;61.14
63405;BME280;49541;57.840;12.306;2023-05-21T05:37:50;101785.59;;;13.40;60.49
63405;BME280;49541;57.840;12.306;2023-05-21T05:42:50;101791.72;;;13.86;59.47
63405;BME280;49541;57.840;12.306;2023-05-21T05:47:51;101793.28;;;13.88;58.98
63405;BME280;49541;57.840;12.306;2023-05-21T05:52:51;101786.53;;;14.05;58.40
63405;BME280;49541;57.840;12.306;2023-05-21T05:57:52;101793.66;;;14.48;57.17
63405;BME280;49541;57.840;12.306;2023-05-21T06:02:52;101786.44;;;14.81;56.97
63405;BME280;49541;57.840;12.306;2023-05-21T06:07:52;101775.94;;;14.99;56.75
63405;BME280;49541;57.840;12.306;2023-05-21T06:12:52;101782.03;;;15.32;56.99
63405;BME280;49541;57.840;12.306;2023-05-21T06:17:52;101773.47;;;15.38;55.54
63405;BME280;49541;57.840;12.306;2023-05-21T06:22:53;101779.59;;;15.69;56.06
63405;BME280;49541;57.840;12.306;2023-05-21T06:27:53;101776.91;;;15.69;55.63
63405;BME280;49541;57.840;12.306;2023-05-21T06:32:53;101771.78;;;16.07;54.71
63405;BME280;49541;57.840;12.306;2023-05-21T06:37:53;101772.78;;;16.35;52.79
63405;BME280;49541;57.840;12.306;2023-05-21T06:42:53;101767.38;;;16.45;53.01
63405;BME280;49541;57.840;12.306;2023-05-21T06:47:55;101778.25;;;16.72;52.05
63405;BME280;49541;57.840;12.306;2023-05-21T06:52:55;101782.47;;;17.32;50.83
63405;BME280;49541;57.840;12.306;2023-05-21T06:57:56;101774.50;;;17.40;48.71
63405;BME280;49541;57.840;12.306;2023-05-21T07:02:56;101784.50;;;17.75;48.72
63405;BME280;49541;57.840;12.306;2023-05-21T07:07:56;101779.34;;;18.10;45.94
63405;BME280;49541;57.840;12.306;2023-05-21T07:12:56;101780.69;;;18.50;45.16
63405;BME280;49541;57.840;12.306;2023-05-21T07:17:56;101782.47;;;18.41;44.75
63405;BME280;49541;57.840;12.306;2023-05-21T07:22:57;101778.63;;;18.88;43.01
63405;BME280;49541;57.840;12.306;2023-05-21T07:27:57;101781.75;;;19.35;40.93
63405;BME280;49541;57.840;12.306;2023-05-21T07:32:57;101780.31;;;19.57;40.57
63405;BME280;49541;57.840;12.306;2023-05-21T07:37:57;101774.53;;;19.87;39.71
63405;BME280;49541;57.840;12.306;2023-05-21T07:42:57;101775.22;;;20.13;40.85
63405;BME280;49541;57.840;12.306;2023-05-21T07:47:58;101776.75;;;19.99;42.27
63405;BME280;49541;57.840;12.306;2023-05-21T07:52:58;101769.69;;;20.39;40.58
63405;BME280;49541;57.840;12.306;2023-05-21T07:57:58;101761.91;;;20.44;39.53
63405;BME280;49541;57.840;12.306;2023-05-21T08:02:58;101770.00;;;20.77;39.20
63405;BME280;49541;57.840;12.306;2023-05-21T08:07:58;101770.13;;;21.09;37.20
63405;BME280;49541;57.840;12.306;2023-05-21T08:12:59;101766.72;;;21.15;38.04
63405;BME280;49541;57.840;12.306;2023-05-21T08:17:59;101777.31;;;21.33;37.94
63405;BME280;49541;57.840;12.306;2023-05-21T08:22:59;101767.53;;;21.63;36.42
63405;BME280;49541;57.840;12.306;2023-05-21T08:27:59;101757.78;;;21.77;36.61
63405;BME280;49541;57.840;12.306;2023-05-21T08:33:00;101765.72;;;22.09;36.19
63405;BME280;49541;57.840;12.306;2023-05-21T08:38:00;101768.81;;;22.67;35.18
63405;BME280;49541;57.840;12.306;2023-05-21T08:43:00;101768.53;;;22.77;34.66
63405;BME280;49541;57.840;12.306;2023-05-21T08:48:00;101765.97;;;23.14;34.27
63405;BME280;49541;57.840;12.306;2023-05-21T08:53:01;101767.94;;;23.35;33.79
63405;BME280;49541;57.840;12.306;2023-05-21T08:58:01;101762.41;;;23.13;33.72
63405;BME280;49541;57.840;12.306;2023-05-21T09:03:03;101761.44;;;23.50;31.55
63405;BME280;49541;57.840;12.306;2023-05-21T09:08:11;101758.16;;;23.40;32.41
63405;BME280;49541;57.840;12.306;2023-05-21T09:13:12;101753.28;;;23.87;32.26
63405;BME280;49541;57.840;12.306;2023-05-21T09:18:13;101747.19;;;24.49;32.54
63405;BME280;49541;57.840;12.306;2023-05-21T09:23:15;101751.19;;;24.82;31.64
63405;BME280;49541;57.840;12.306;2023-05-21T09:28:16;101753.69;;;24.77;30.67
63405;BME280;49541;57.840;12.306;2023-05-21T09:33:26;101755.34;;;25.47;30.94
63405;BME280;49541;57.840;12.306;2023-05-21T09:38:28;101748.28;;;25.66;30.75
63405;BME280;49541;57.840;12.306;2023-05-21T09:43:29;101735.88;;;25.64;30.80
63405;BME280;49541;57.840;12.306;2023-05-21T09:48:33;101742.84;;;25.80;30.47
63405;BME280;49541;57.840;12.306;2023-05-21T09:53:33;101732.16;;;25.78;30.01
63405;BME280;49541;57.840;12.306;2023-05-21T09:58:34;101733.06;;;26.05;29.50
63405;BME280;49541;57.840;12.306;2023-05-21T10:03:36;101721.72;;;26.08;29.97
63405;BME280;49541;57.840;12.306;2023-05-21T10:08:39;101714.41;;;26.29;29.71
63405;BME280;49541;57.840;12.306;2023-05-21T10:13:43;101718.34;;;26.80;29.01
63405;BME280;49541;57.840;12.306;2023-05-21T10:18:44;101710.34;;;26.91;29.03
63405;BME280;49541;57.840;12.306;2023-05-21T10:23:46;101697.91;;;26.95;29.04
63405;BME280;49541;57.840;12.306;2023-05-21T10:28:47;101693.50;;;26.94;28.81
63405;BME280;49541;57.840;12.306;2023-05-21T10:33:48;101691.84;;;26.80;29.04
63405;BME280;49541;57.840;12.306;2023-05-21T10:38:49;101689.56;;;27.35;28.44
63405;BME280;49541;57.840;12.306;2023-05-21T10:49:16;101681.34;;;28.06;27.69
63405;BME280;49541;57.840;12.306;2023-05-21T10:54:27;101683.34;;;28.42;27.11
63405;BME280;49541;57.840;12.306;2023-05-21T10:59:34;101672.50;;;28.29;27.52
63405;BME280;49541;57.840;12.306;2023-05-21T11:04:39;101669.66;;;28.42;27.42
63405;BME280;49541;57.840;12.306;2023-05-21T11:09:41;101666.88;;;28.86;26.50
63405;BME280;49541;57.840;12.306;2023-05-21T11:14:45;101673.69;;;28.95;26.79
63405;BME280;49541;57.840;12.306;2023-05-21T11:19:55;101665.13;;;29.10;26.79
63405;BME280;49541;57.840;12.306;2023-05-21T11:25:03;101657.44;;;29.60;26.20
63405;BME280;49541;57.840;12.306;2023-05-21T11:30:05;101664.91;;;29.42;25.82
63405;BME280;49541;57.840;12.306;2023-05-21T11:35:07;101663.25;;;29.04;25.25
63405;BME280;49541;57.840;12.306;2023-05-21T11:40:23;101661.16;;;29.36;26.90
63405;BME280;49541;57.840;12.306;2023-05-21T11:45:28;101651.00;;;29.97;25.54
63405;BME280;49541;57.840;12.306;2023-05-21T11:50:30;101654.47;;;30.16;25.64
63405;BME280;49541;57.840;12.306;2023-05-21T11:55:32;101648.13;;;30.04;25.07
63405;BME280;49541;57.840;12.306;2023-05-21T12:00:37;101645.22;;;30.81;25.21
63405;BME280;49541;57.840;12.306;2023-05-21T12:05:45;101641.88;;;31.19;24.59
63405;BME280;49541;57.840;12.306;2023-05-21T12:10:45;101643.41;;;31.90;24.07
63405;BME280;49541;57.840;12.306;2023-05-21T12:15:45;101644.59;;;32.50;23.85
63405;BME280;49541;57.840;12.306;2023-05-21T12:20:45;101647.13;;;32.73;23.14
63405;BME280;49541;57.840;12.306;2023-05-21T12:25:46;101644.31;;;32.68;23.48
63405;BME280;49541;57.840;12.306;2023-05-21T12:30:46;101641.25;;;32.48;22.26
63405;BME280;49541;57.840;12.306;2023-05-21T12:35:47;101633.31;;;32.51;22.89
63405;BME280;49541;57.840;12.306;2023-05-21T12:40:48;101625.13;;;33.55;22.83
63405;BME280;49541;57.840;12.306;2023-05-21T12:45:48;101630.78;;;33.65;22.26
63405;BME280;49541;57.840;12.306;2023-05-21T12:50:50;101624.00;;;33.83;21.90
63405;BME280;49541;57.840;12.306;2023-05-21T12:55:51;101628.53;;;34.37;21.42
63405;BME280;49541;57.840;12.306;2023-05-21T13:00:58;101628.22;;;34.81;20.19
63405;BME280;49541;57.840;12.306;2023-05-21T13:05:59;101617.59;;;34.57;20.85
63405;BME280;49541;57.840;12.306;2023-05-21T13:11:03;101611.56;;;34.71;21.19
63405;BME280;49541;57.840;12.306;2023-05-21T13:16:03;101605.34;;;35.11;21.54
63405;BME280;49541;57.840;12.306;2023-05-21T13:21:03;101596.97;;;34.85;19.96
63405;BME280;49541;57.840;12.306;2023-05-21T13:26:04;101595.34;;;34.95;20.36
63405;BME280;49541;57.840;12.306;2023-05-21T13:31:04;101598.94;;;35.11;20.52
63405;BME280;49541;57.840;12.306;2023-05-21T13:36:04;101601.22;;;35.44;20.51
63405;BME280;49541;57.840;12.306;2023-05-21T13:41:04;101590.03;;;34.78;20.56
63405;BME280;49541;57.840;12.306;2023-05-21T13:46:04;101594.69;;;34.67;20.64
63405;BME280;49541;57.840;12.306;2023-05-21T13:51:05;101585.72;;;35.23;20.43
63405;BME280;49541;57.840;12.306;2023-05-21T13:56:05;101584.34;;;35.25;20.51
63405;BME280;49541;57.840;12.306;2023-05-21T14:01:05;101568.00;;;35.85;19.87
63405;BME280;49541;57.840;12.306;2023-05-21T14:06:06;101575.03;;;36.53;20.25
63405;BME280;49541;57.840;12.306;2023-05-21T14:11:07;101558.06;;;35.74;19.57
63405;BME280;49541;57.840;12.306;2023-05-21T14:16:07;101559.69;;;35.60;20.30
63405;BME280;49541;57.840;12.306;2023-05-21T14:21:07;101556.06;;;36.05;19.68
63405;BME280;49541;57.840;12.306;2023-05-21T14:26:08;101551.41;;;35.44;20.81
63405;BME280;49541;57.840;12.306;2023-05-21T14:31:08;101548.38;;;35.25;20.57
63405;BME280;49541;57.840;12.306;2023-05-21T14:36:08;101548.63;;;35.91;20.25
63405;BME280;49541;57.840;12.306;2023-05-21T14:41:08;101553.81;;;36.18;20.57
63405;BME280;49541;57.840;12.306;2023-05-21T14:46:08;101542.53;;;35.88;19.95
63405;BME280;49541;57.840;12.306;2023-05-21T14:51:09;101539.75;;;35.94;19.81
63405;BME280;49541;57.840;12.306;2023-05-21T14:56:09;101540.84;;;35.98;19.84
63405;BME280;49541;57.840;12.306;2023-05-21T15:01:09;101529.28;;;35.75;19.31
63405;BME280;49541;57.840;12.306;2023-05-21T15:06:09;101517.66;;;35.06;21.26
63405;BME280;49541;57.840;12.306;2023-05-21T15:11:10;101523.75;;;35.50;20.33
63405;BME280;49541;57.840;12.306;2023-05-21T15:16:10;101516.81;;;35.52;20.34
63405;BME280;49541;57.840;12.306;2023-05-21T15:21:10;101516.00;;;35.67;20.64
63405;BME280;49541;57.840;12.306;2023-05-21T15:26:10;101511.53;;;35.56;20.30
63405;BME280;49541;57.840;12.306;2023-05-21T15:31:11;101508.00;;;35.19;21.64
63405;BME280;49541;57.840;12.306;2023-05-21T15:36:11;101491.63;;;34.82;21.08
63405;BME280;49541;57.840;12.306;2023-05-21T15:41:11;101499.06;;;34.71;21.18
63405;BME280;49541;57.840;12.306;2023-05-21T15:46:11;101487.75;;;34.93;21.58
63405;BME280;49541;57.840;12.306;2023-05-21T15:51:12;101484.59;;;34.43;22.00
63405;BME280;49541;57.840;12.306;2023-05-21T15:56:12;101477.44;;;33.84;22.74
63405;BME280;49541;57.840;12.306;2023-05-21T16:01:12;101481.81;;;33.80;22.91
63405;BME280;49541;57.840;12.306;2023-05-21T16:06:12;101468.97;;;33.59;22.77
63405;BME280;49541;57.840;12.306;2023-05-21T16:11:13;101473.88;;;33.94;22.71
63405;BME280;49541;57.840;12.306;2023-05-21T16:16:13;101464.13;;;33.71;23.09
63405;BME280;49541;57.840;12.306;2023-05-21T16:21:13;101460.78;;;33.69;22.85
63405;BME280;49541;57.840;12.306;2023-05-21T16:26:14;101452.41;;;34.06;23.45
63405;BME280;49541;57.840;12.306;2023-05-21T16:31:14;101451.22;;;33.44;24.04
63405;BME280;49541;57.840;12.306;2023-05-21T16:36:14;101450.88;;;33.31;23.73
63405;BME280;49541;57.840;12.306;2023-05-21T16:41:15;101458.38;;;33.40;24.63
63405;BME280;49541;57.840;12.306;2023-05-21T16:46:15;101449.69;;;32.62;25.87
63405;BME280;49541;57.840;12.306;2023-05-21T16:51:15;101452.22;;;31.97;27.28
63405;BME280;49541;57.840;12.306;2023-05-21T16:56:15;101450.94;;;31.66;27.48
63405;BME280;49541;57.840;12.306;2023-05-21T17:01:16;101451.47;;;31.63;27.32
63405;BME280;49541;57.840;12.306;2023-05-21T17:06:16;101447.72;;;31.18;28.46
63405;BME280;49541;57.840;12.306;2023-05-21T17:11:16;101444.16;;;31.18;27.89
63405;BME280;49541;57.840;12.306;2023-05-21T17:16:16;101443.75;;;31.26;27.74
63405;BME280;49541;57.840;12.306;2023-05-21T17:21:17;101451.75;;;30.82;28.52
63405;BME280;49541;57.840;12.306;2023-05-21T17:26:17;101450.91;;;30.65;29.21
63405;BME280;49541;57.840;12.306;2023-05-21T17:31:17;101442.00;;;30.57;29.60
63405;BME280;49541;57.840;12.306;2023-05-21T17:36:17;101438.88;;;30.25;30.17
63405;BME280;49541;57.840;12.306;2023-05-21T17:41:18;101435.78;;;29.69;30.43
63405;BME280;49541;57.840;12.306;2023-05-21T17:46:18;101439.69;;;29.61;31.21
63405;BME280;49541;57.840;12.306;2023-05-21T17:51:18;101448.78;;;28.96;31.88
63405;BME280;49541;57.840;12.306;2023-05-21T17:56:18;101448.75;;;28.54;32.56
63405;BME280;49541;57.840;12.306;2023-05-21T18:01:19;101450.34;;;28.62;32.86
63405;BME280;49541;57.840;12.306;2023-05-21T18:06:19;101453.28;;;27.75;33.88
63405;BME280;49541;57.840;12.306;2023-05-21T18:11:20;101458.66;;;27.63;34.66
63405;BME280;49541;57.840;12.306;2023-05-21T18:16:20;101456.66;;;27.27;34.88
63405;BME280;49541;57.840;12.306;2023-05-21T18:21:22;101452.06;;;26.95;35.27
63405;BME280;49541;57.840;12.306;2023-05-21T18:26:22;101455.38;;;26.72;35.93
63405;BME280;49541;57.840;12.306;2023-05-21T18:31:23;101444.28;;;26.61;37.05
63405;BME280;49541;57.840;12.306;2023-05-21T18:36:23;101456.19;;;26.28;37.11
63405;BME280;49541;57.840;12.306;2023-05-21T18:41:25;101462.38;;;25.83;37.83
63405;BME280;49541;57.840;12.306;2023-05-21T18:46:26;101461.81;;;25.41;38.91
63405;BME280;49541;57.840;12.306;2023-05-21T18:51:26;101464.53;;;25.48;38.87
63405;BME280;49541;57.840;12.306;2023-05-21T18:56:26;101471.22;;;25.12;40.16
63405;BME280;49541;57.840;12.306;2023-05-21T19:01:27;101481.91;;;24.45;41.48
63405;BME280;49541;57.840;12.306;2023-05-21T19:06:27;101477.84;;;24.21;41.51
63405;BME280;49541;57.840;12.306;2023-05-21T19:11:27;101478.00;;;24.13;41.11
63405;BME280;49541;57.840;12.306;2023-05-21T19:16:31;101492.97;;;23.96;39.46
63405;BME280;49541;57.840;12.306;2023-05-21T19:21:31;101485.47;;;23.98;38.32
63405;BME280;49541;57.840;12.306;2023-05-21T19:26:32;101488.28;;;23.83;38.13
63405;BME280;49541;57.840;12.306;2023-05-21T19:31:32;101484.56;;;23.34;38.84
63405;BME280;49541;57.840;12.306;2023-05-21T19:36:32;101495.88;;;23.38;38.29
63405;BME280;49541;57.840;12.306;2023-05-21T19:41:32;101499.53;;;22.87;39.29
63405;BME280;49541;57.840;12.306;2023-05-21T19:46:33;101506.84;;;22.50;39.98
63405;BME280;49541;57.840;12.306;2023-05-21T19:51:33;101513.66;;;21.86;41.28
63405;BME280;49541;57.840;12.306;2023-05-21T19:56:33;101524.84;;;21.98;40.82
63405;BME280;49541;57.840;12.306;2023-05-21T20:01:33;101523.91;;;21.76;40.33
63405;BME280;49541;57.840;12.306;2023-05-21T20:06:38;101527.31;;;21.55;41.20
63405;BME280;49541;57.840;12.306;2023-05-21T20:11:38;101522.47;;;21.65;40.94
63405;BME280;49541;57.840;12.306;2023-05-21T20:16:41;101518.78;;;21.43;41.88
63405;BME280;49541;57.840;12.306;2023-05-21T20:21:41;101526.38;;;21.48;42.10
63405;BME280;49541;57.840;12.306;2023-05-21T20:26:41;101529.00;;;21.33;42.55
63405;BME280;49541;57.840;12.306;2023-05-21T20:31:44;101525.03;;;21.44;42.30
63405;BME280;49541;57.840;12.306;2023-05-21T20:36:44;101506.00;;;21.29;42.83
63405;BME280;49541;57.840;12.306;2023-05-21T20:41:45;101504.81;;;20.85;44.97
63405;BME280;49541;57.840;12.306;2023-05-21T20:46:45;101499.00;;;20.65;45.82
63405;BME280;49541;57.840;12.306;2023-05-21T20:51:46;101503.31;;;20.43;46.65
63405;BME280;49541;57.840;12.306;2023-05-21T20:56:47;101494.53;;;20.41;46.56
63405;BME280;49541;57.840;12.306;2023-05-21T21:01:49;101499.38;;;20.54;46.24
63405;BME280;49541;57.840;12.306;2023-05-21T21:06:51;101497.50;;;20.55;46.53
63405;BME280;49541;57.840;12.306;2023-05-21T21:11:52;101498.19;;;20.57;46.86
63405;BME280;49541;57.840;12.306;2023-05-21T21:16:52;101505.09;;;20.20;46.67
63405;BME280;49541;57.840;12.306;2023-05-21T21:21:52;101501.09;;;19.99;47.38
63405;BME280;49541;57.840;12.306;2023-05-21T21:26:53;101510.94;;;19.84;48.00
63405;BME280;49541;57.840;12.306;2023-05-21T21:31:53;101508.75;;;19.79;48.21
63405;BME280;49541;57.840;12.306;2023-05-21T21:36:53;101505.69;;;19.91;48.37
63405;BME280;49541;57.840;12.306;2023-05-21T21:41:54;101491.94;;;20.09;48.17
63405;BME280;49541;57.840;12.306;2023-05-21T21:46:54;101494.88;;;19.91;48.54
63405;BME280;49541;57.840;12.306;2023-05-21T21:51:54;101494.22;;;19.80;48.33
63405;BME280;49541;57.840;12.306;2023-05-21T21:56:56;101493.56;;;19.62;48.13
63405;BME280;49541;57.840;12.306;2023-05-21T22:01:57;101481.91;;;19.53;48.06
63405;BME280;49541;57.840;12.306;2023-05-21T22:06:57;101476.84;;;19.17;48.56
63405;BME280;49541;57.840;12.306;2023-05-21T22:11:57;101477.00;;;19.16;49.42
63405;BME280;49541;57.840;12.306;2023-05-21T22:16:57;101473.81;;;19.04;50.16
63405;BME280;49541;57.840;12.306;2023-05-21T22:21:58;101476.16;;;18.82;50.83
63405;BME280;49541;57.840;12.306;2023-05-21T22:26:59;101473.38;;;18.66;49.67
63405;BME280;49541;57.840;12.306;2023-05-21T22:31:59;101486.16;;;18.56;50.46
63405;BME280;49541;57.840;12.306;2023-05-21T22:36:59;101493.19;;;18.40;50.35
63405;BME280;49541;57.840;12.306;2023-05-21T22:42:00;101497.25;;;18.45;49.77
63405;BME280;49541;57.840;12.306;2023-05-21T22:47:00;101509.34;;;18.40;50.73
63405;BME280;49541;57.840;12.306;2023-05-21T22:52:02;101504.59;;;18.34;51.54
63405;BME280;49541;57.840;12.306;2023-05-21T22:57:07;101505.47;;;18.00;51.74
63405;BME280;49541;57.840;12.306;2023-05-21T23:02:08;101512.41;;;17.85;52.23
63405;BME280;49541;57.840;12.306;2023-05-21T23:07:08;101504.38;;;17.67;52.52
63405;BME280;49541;57.840;12.306;2023-05-21T23:12:08;101494.34;;;17.51;52.48
63405;BME280;49541;57.840;12.306;2023-05-21T23:17:08;101488.56;;;17.46;51.07
63405;BME280;49541;57.840;12.306;2023-05-21T23:22:09;101511.03;;;17.37;50.86
63405;BME280;49541;57.840;12.306;2023-05-21T23:27:09;101504.34;;;16.87;50.68
63405;BME280;49541;57.840;12.306;2023-05-21T23:32:09;101514.13;;;17.06;53.05
63405;BME280;49541;57.840;12.306;2023-05-21T23:37:10;101502.69;;;17.04;51.94
63405;BME280;49541;57.840;12.306;2023-05-21T23:42:10;101503.97;;;16.82;53.59
63405;BME280;49541;57.840;12.306;2023-05-21T23:47:10;101497.38;;;16.67;52.35
63405;BME280;49541;57.840;12.306;2023-05-21T23:52:11;101502.34;;;16.62;53.47
63405;BME280;49541;57.840;12.306;2023-05-21T23:57:12;101503.63;;;16.40;52.93
